createdAt,value
2022-11-23T00:00:07.044Z,1.30
2022-11-23T00:02:33.742Z,1.30
2022-11-23T00:05:00.448Z,1.30
2022-11-23T00:07:27.139Z,1.20
2022-11-23T00:09:53.950Z,1.20
2022-11-23T00:12:20.639Z,1.30
2022-11-23T00:14:47.301Z,1.30
2022-11-23T00:17:13.985Z,1.30
2022-11-23T00:19:40.672Z,1.30
2022-11-23T00:22:07.342Z,1.30
2022-11-23T00:24:34.060Z,1.30
2022-11-23T00:27:00.783Z,1.20
2022-11-23T00:29:27.487Z,1.20
2022-11-23T00:31:54.145Z,1.20
2022-11-23T00:34:20.904Z,1.20
2022-11-23T00:36:47.613Z,1.20
2022-11-23T00:39:14.360Z,1.20
2022-11-23T00:41:41.044Z,1.20
2022-11-23T00:44:07.718Z,1.20
2022-11-23T00:46:34.385Z,1.20
2022-11-23T00:49:01.048Z,1.30
2022-11-23T00:51:32.723Z,1.30
2022-11-23T00:54:00.652Z,1.30
2022-11-23T00:56:28.390Z,1.30
2022-11-23T00:58:56.827Z,1.30
2022-11-23T01:01:29.615Z,1.30
2022-11-23T01:03:59.127Z,1.30
2022-11-23T01:06:28.775Z,1.30
2022-11-23T01:08:58.065Z,1.40
2022-11-23T01:11:27.432Z,1.40
2022-11-23T01:13:54.384Z,1.40
2022-11-23T01:16:27.527Z,1.40
2022-11-23T01:18:59.432Z,1.40
2022-11-23T01:21:28.888Z,1.30
2022-11-23T01:23:56.070Z,1.30
2022-11-23T01:26:23.607Z,1.30
2022-11-23T01:28:50.704Z,1.30
2022-11-23T01:31:20.537Z,1.30
2022-11-23T01:33:47.999Z,1.30
2022-11-23T01:36:18.132Z,1.20
2022-11-23T01:38:45.999Z,1.20
2022-11-23T01:41:25.071Z,1.20
2022-11-23T01:43:52.171Z,1.30
2022-11-23T01:46:18.853Z,1.30
2022-11-23T01:49:06.950Z,1.40
2022-11-23T01:51:40.532Z,1.40
2022-11-23T01:54:24.970Z,1.40
2022-11-23T01:56:59.843Z,1.50
2022-11-23T01:59:28.654Z,1.50
2022-11-23T02:01:55.380Z,1.50
2022-11-23T02:04:30.076Z,1.50
2022-11-23T02:06:59.615Z,1.60
2022-11-23T02:09:26.500Z,1.60
2022-11-23T02:11:53.280Z,1.60
2022-11-23T02:14:23.391Z,1.70
2022-11-23T02:16:50.432Z,1.70
2022-11-23T02:19:34.911Z,1.70
2022-11-23T02:22:01.671Z,1.80
2022-11-23T02:24:36.862Z,1.80
2022-11-23T02:27:04.882Z,1.80
2022-11-23T02:29:31.675Z,1.80
2022-11-23T02:31:58.582Z,1.90
2022-11-23T02:34:25.209Z,1.90
2022-11-23T02:36:57.100Z,1.90
2022-11-23T02:39:30.808Z,1.90
2022-11-23T02:41:58.397Z,1.90
2022-11-23T02:44:46.621Z,1.90
2022-11-23T02:47:13.530Z,1.90
2022-11-23T02:49:46.617Z,1.90
2022-11-23T02:52:14.242Z,1.90
2022-11-23T02:54:40.938Z,1.90
2022-11-23T02:57:07.726Z,1.90
2022-11-23T02:59:34.678Z,1.90
2022-11-23T03:02:03.682Z,1.90
2022-11-23T03:04:31.071Z,1.90
2022-11-23T03:06:57.991Z,1.90
2022-11-23T03:09:24.739Z,1.90
2022-11-23T03:11:51.942Z,1.90
2022-11-23T03:14:18.580Z,1.80
2022-11-23T03:16:45.274Z,1.80
2022-11-23T03:19:12.009Z,1.80
2022-11-23T03:21:38.744Z,1.80
2022-11-23T03:24:05.774Z,1.70
2022-11-23T03:26:32.470Z,1.70
2022-11-23T03:28:59.221Z,1.60
2022-11-23T03:31:26.060Z,1.60
2022-11-23T03:33:52.761Z,1.60
2022-11-23T03:36:19.558Z,1.50
2022-11-23T03:38:46.215Z,1.50
2022-11-23T03:41:12.953Z,1.50
2022-11-23T03:43:39.621Z,1.50
2022-11-23T03:46:06.280Z,1.50
2022-11-23T03:48:32.970Z,1.40
2022-11-23T03:51:02.366Z,1.40
2022-11-23T03:53:29.172Z,1.40
2022-11-23T03:55:55.835Z,1.30
2022-11-23T03:58:22.729Z,1.30
2022-11-23T04:00:49.680Z,1.30
2022-11-23T04:03:16.446Z,1.20
2022-11-23T04:05:43.420Z,1.20
2022-11-23T04:08:10.251Z,1.20
2022-11-23T04:10:36.940Z,1.20
2022-11-23T04:13:03.593Z,1.20
2022-11-23T04:15:30.288Z,1.20
2022-11-23T04:17:57.023Z,1.20
2022-11-23T04:20:23.815Z,1.20
2022-11-23T04:22:50.503Z,1.20
2022-11-23T04:25:17.212Z,1.20
2022-11-23T04:27:44.642Z,1.20
2022-11-23T04:30:11.923Z,1.20
2022-11-23T04:32:38.651Z,1.20
2022-11-23T04:35:05.876Z,1.20
2022-11-23T04:37:32.615Z,1.20
2022-11-23T04:39:59.396Z,1.20
2022-11-23T04:42:26.371Z,1.20
2022-11-23T04:44:53.033Z,1.20
2022-11-23T04:47:19.677Z,1.20
2022-11-23T04:49:46.366Z,1.20
2022-11-23T04:52:13.063Z,1.20
2022-11-23T04:54:39.697Z,1.10
2022-11-23T04:57:06.405Z,1.10
2022-11-23T04:59:33.191Z,1.10
2022-11-23T05:02:00.096Z,1.10
2022-11-23T05:04:26.809Z,1.10
2022-11-23T05:06:53.529Z,1.10
2022-11-23T05:09:20.276Z,1.10
2022-11-23T05:11:46.936Z,1.00
2022-11-23T05:14:13.829Z,1.10
2022-11-23T05:16:40.522Z,1.10
2022-11-23T05:19:07.472Z,1.10
2022-11-23T05:21:34.389Z,1.10
2022-11-23T05:24:01.014Z,1.20
2022-11-23T05:26:27.667Z,1.20
2022-11-23T05:28:54.318Z,1.20
2022-11-23T05:31:20.945Z,1.20
2022-11-23T05:33:47.618Z,1.30
2022-11-23T05:36:14.284Z,1.30
2022-11-23T05:38:41.590Z,1.30
2022-11-23T05:41:08.325Z,1.30
2022-11-23T05:43:35.036Z,1.30
2022-11-23T05:46:02.870Z,1.40
2022-11-23T05:48:29.597Z,1.40
2022-11-23T05:50:58.624Z,1.40
2022-11-23T05:53:28.957Z,1.50
2022-11-23T05:56:02.342Z,1.50
2022-11-23T05:58:29.449Z,1.50
2022-11-23T06:01:00.538Z,1.60
2022-11-23T06:03:27.500Z,1.60
2022-11-23T06:05:54.167Z,1.60
2022-11-23T06:08:20.860Z,1.60
2022-11-23T06:10:47.642Z,1.60
2022-11-23T06:13:14.372Z,1.70
2022-11-23T06:15:41.092Z,1.60
2022-11-23T06:18:08.859Z,1.60
2022-11-23T06:20:35.785Z,1.60
2022-11-23T06:23:02.508Z,1.60
2022-11-23T06:25:29.271Z,1.60
2022-11-23T06:27:57.669Z,1.50
2022-11-23T06:30:25.073Z,1.50
2022-11-23T06:32:52.110Z,1.40
2022-11-23T06:35:19.038Z,1.40
2022-11-23T06:37:48.502Z,1.40
2022-11-23T06:40:15.337Z,1.30
2022-11-23T06:42:41.989Z,1.20
2022-11-23T06:45:09.559Z,1.20
2022-11-23T06:47:36.390Z,1.20
2022-11-23T06:50:03.467Z,1.20
2022-11-23T06:52:30.358Z,1.20
2022-11-23T06:54:57.432Z,1.20
2022-11-23T06:57:24.254Z,1.10
2022-11-23T06:59:50.985Z,1.10
2022-11-23T07:02:17.694Z,1.10
2022-11-23T07:04:44.926Z,1.10
2022-11-23T07:07:11.593Z,1.10
2022-11-23T07:09:38.381Z,1.10
2022-11-23T07:12:05.366Z,1.10
2022-11-23T07:14:32.131Z,1.10
2022-11-23T07:16:58.871Z,1.10
2022-11-23T07:19:25.527Z,1.10
2022-11-23T07:21:52.206Z,1.10
2022-11-23T07:24:18.960Z,1.10
2022-11-23T07:26:45.707Z,1.10
2022-11-23T07:29:12.427Z,1.10
2022-11-23T07:31:39.184Z,1.00
2022-11-23T07:34:05.981Z,1.00
2022-11-23T07:36:33.306Z,1.10
2022-11-23T07:38:59.995Z,1.10
2022-11-23T07:41:26.664Z,1.10
2022-11-23T07:43:53.577Z,1.10
2022-11-23T07:46:20.859Z,1.10
2022-11-23T07:48:47.512Z,1.10
2022-11-23T07:51:14.217Z,1.10
2022-11-23T07:53:40.977Z,1.20
2022-11-23T07:56:07.997Z,1.20
2022-11-23T07:58:35.016Z,1.20
2022-11-23T08:01:01.783Z,1.20
2022-11-23T08:03:29.516Z,1.30
2022-11-23T08:05:57.005Z,1.30
2022-11-23T08:08:24.044Z,1.30
2022-11-23T08:10:53.946Z,1.40
2022-11-23T08:13:22.224Z,1.40
2022-11-23T08:15:54.345Z,1.40
2022-11-23T08:18:21.960Z,1.50
2022-11-23T08:20:48.630Z,1.50
2022-11-23T08:23:15.527Z,1.50
2022-11-23T08:25:42.345Z,1.60
2022-11-23T08:28:09.296Z,1.60
2022-11-23T08:30:36.393Z,1.70
2022-11-23T08:33:05.163Z,1.80
2022-11-23T08:35:34.315Z,1.90
2022-11-23T08:38:01.018Z,1.90
2022-11-23T08:40:27.854Z,2.00
2022-11-23T08:42:55.011Z,2.10
2022-11-23T08:45:22.099Z,2.20
2022-11-23T08:47:48.766Z,2.20
2022-11-23T08:50:15.740Z,2.30
2022-11-23T08:52:42.604Z,2.40
2022-11-23T08:55:09.485Z,2.50
2022-11-23T08:57:36.156Z,2.50
2022-11-23T09:00:04.214Z,2.60
2022-11-23T09:02:30.874Z,2.70
2022-11-23T09:04:57.578Z,2.70
2022-11-23T09:07:24.847Z,2.80
2022-11-23T09:09:51.599Z,2.90
2022-11-23T09:12:18.310Z,2.90
2022-11-23T09:14:45.029Z,3.00
2022-11-23T09:17:12.183Z,3.00
2022-11-23T09:19:38.892Z,3.00
2022-11-23T09:22:05.535Z,3.10
2022-11-23T09:24:32.646Z,3.10
2022-11-23T09:26:59.531Z,3.10
2022-11-23T09:29:26.232Z,3.10
2022-11-23T09:31:53.060Z,3.10
2022-11-23T09:34:19.802Z,3.10
2022-11-23T09:36:46.950Z,3.10
2022-11-23T09:39:13.730Z,3.10
2022-11-23T09:41:49.698Z,3.00
2022-11-23T09:44:16.286Z,3.00
2022-11-23T09:47:21.420Z,3.00
2022-11-23T09:50:06.619Z,3.00
2022-11-23T09:52:42.389Z,3.00
2022-11-23T09:55:21.552Z,3.00
2022-11-23T09:57:50.734Z,3.00
2022-11-23T10:00:24.025Z,3.00
2022-11-23T10:02:50.758Z,3.10
2022-11-23T10:05:23.297Z,3.10
2022-11-23T10:08:16.340Z,3.10
2022-11-23T10:11:16.643Z,3.10
2022-11-23T10:13:58.712Z,3.10
2022-11-23T10:16:28.213Z,3.10
2022-11-23T10:19:05.506Z,3.20
2022-11-23T10:21:51.645Z,3.20
2022-11-23T10:24:19.279Z,3.20
2022-11-23T10:26:49.150Z,3.20
2022-11-23T10:29:27.768Z,3.30
2022-11-23T10:31:57.192Z,3.30
2022-11-23T10:34:56.881Z,3.30
2022-11-23T10:37:23.528Z,3.40
2022-11-23T10:39:50.367Z,3.40
2022-11-23T10:42:57.924Z,3.40
2022-11-23T10:45:27.293Z,3.50
2022-11-23T10:48:00.794Z,3.50
2022-11-23T10:50:31.707Z,3.60
2022-11-23T10:53:20.097Z,3.60
2022-11-23T10:55:56.852Z,3.70
2022-11-23T10:58:44.993Z,3.70
2022-11-23T11:01:18.934Z,3.70
2022-11-23T11:03:45.721Z,3.80
2022-11-23T11:06:26.011Z,3.80
2022-11-23T11:09:02.745Z,3.80
2022-11-23T11:11:34.860Z,3.90
2022-11-23T11:14:42.821Z,3.90
2022-11-23T11:17:26.185Z,4.00
2022-11-23T11:19:52.891Z,4.00
2022-11-23T11:22:33.918Z,4.10
2022-11-23T11:25:05.281Z,4.10
2022-11-23T11:27:32.824Z,4.20
2022-11-23T11:30:07.031Z,4.30
2022-11-23T11:33:00.103Z,4.30
2022-11-23T11:35:31.555Z,4.40
2022-11-23T11:38:08.458Z,4.50
2022-11-23T11:40:49.479Z,4.50
2022-11-23T11:43:29.258Z,4.60
2022-11-23T11:46:29.801Z,4.70
2022-11-23T11:49:23.673Z,4.80
2022-11-23T11:51:59.074Z,5.00
2022-11-23T11:54:57.753Z,5.10
2022-11-23T11:57:37.434Z,5.30
2022-11-23T12:00:12.898Z,5.40
2022-11-23T12:03:15.850Z,5.50
2022-11-23T12:05:49.347Z,5.60
2022-11-23T12:08:51.084Z,5.70
2022-11-23T12:11:17.948Z,5.80
2022-11-23T12:13:45.414Z,5.90
2022-11-23T12:16:34.125Z,6.00
2022-11-23T12:19:20.800Z,6.20
2022-11-23T12:21:59.838Z,6.20
2022-11-23T12:24:32.520Z,6.30
2022-11-23T12:27:15.712Z,6.30
2022-11-23T12:30:00.174Z,6.40
2022-11-23T12:33:00.708Z,6.50
2022-11-23T12:35:46.507Z,6.60
2022-11-23T12:38:31.268Z,6.70
2022-11-23T12:41:18.133Z,6.70
2022-11-23T12:44:07.624Z,6.70
2022-11-23T12:47:01.023Z,6.70
2022-11-23T12:50:00.252Z,6.60
2022-11-23T12:52:37.603Z,6.60
2022-11-23T12:55:25.007Z,6.50
2022-11-23T12:57:59.780Z,6.60
2022-11-23T13:00:34.277Z,6.60
2022-11-23T13:03:31.992Z,6.60
2022-11-23T13:06:16.805Z,6.70
2022-11-23T13:09:15.783Z,6.70
2022-11-23T13:11:48.201Z,6.80
2022-11-23T13:14:23.766Z,6.90
2022-11-23T13:17:02.588Z,7.00
2022-11-23T13:19:37.280Z,7.10
2022-11-23T13:22:06.482Z,7.20
2022-11-23T13:24:37.417Z,7.40
2022-11-23T13:27:13.497Z,7.50
2022-11-23T13:29:46.428Z,7.60
2022-11-23T13:32:37.988Z,7.50
2022-11-23T13:35:16.951Z,7.50
2022-11-23T13:37:59.028Z,7.60
2022-11-23T13:40:28.112Z,7.60
2022-11-23T13:42:59.553Z,7.70
2022-11-23T13:45:37.237Z,7.80
2022-11-23T13:48:13.259Z,7.80
2022-11-23T13:50:49.270Z,7.70
2022-11-23T13:53:23.719Z,7.60
2022-11-23T13:55:53.639Z,7.50
2022-11-23T13:58:23.337Z,7.50
2022-11-23T14:00:54.411Z,7.40
2022-11-23T14:03:43.072Z,7.30
2022-11-23T14:06:34.655Z,7.20
2022-11-23T14:09:23.098Z,7.20
2022-11-23T14:12:02.428Z,7.00
2022-11-23T14:15:03.504Z,7.00
2022-11-23T14:17:49.024Z,6.90
2022-11-23T14:20:28.098Z,6.90
2022-11-23T14:23:09.279Z,6.80
2022-11-23T14:25:44.059Z,6.70
2022-11-23T14:29:04.526Z,6.70
2022-11-23T14:31:57.770Z,6.60
2022-11-23T14:34:57.298Z,6.50
2022-11-23T14:37:44.823Z,6.50
2022-11-23T14:40:48.378Z,6.40
2022-11-23T14:43:18.358Z,6.30
2022-11-23T14:45:46.047Z,6.20
2022-11-23T14:48:28.877Z,6.10
2022-11-23T14:51:00.859Z,6.00
2022-11-23T14:53:46.463Z,5.90
2022-11-23T14:56:22.473Z,5.80
2022-11-23T14:58:53.459Z,5.70
2022-11-23T15:01:22.684Z,5.60
2022-11-23T15:03:58.780Z,5.60
2022-11-23T15:06:33.202Z,5.50
2022-11-23T15:09:26.206Z,5.40
2022-11-23T15:12:25.898Z,5.40
2022-11-23T15:14:54.385Z,5.30
2022-11-23T15:17:22.193Z,5.30
2022-11-23T15:19:55.766Z,5.20
2022-11-23T15:22:22.741Z,5.10
2022-11-23T15:24:49.398Z,5.10
2022-11-23T15:27:21.805Z,5.00
2022-11-23T15:29:57.068Z,5.00
2022-11-23T15:32:31.158Z,4.90
2022-11-23T15:35:05.763Z,4.80
2022-11-23T15:37:42.753Z,4.80
2022-11-23T15:40:16.550Z,4.70
2022-11-23T15:42:45.363Z,4.70
2022-11-23T15:45:38.898Z,4.60
2022-11-23T15:48:13.590Z,4.60
2022-11-23T15:50:53.675Z,4.60
2022-11-23T15:53:25.077Z,4.60
2022-11-23T15:55:52.758Z,4.60
2022-11-23T15:58:21.084Z,4.60
2022-11-23T16:00:51.573Z,4.60
2022-11-23T16:03:29.295Z,4.60
2022-11-23T16:06:11.444Z,4.70
2022-11-23T16:08:38.750Z,4.60
2022-11-23T16:11:05.511Z,4.70
2022-11-23T16:13:37.452Z,4.70
2022-11-23T16:16:14.179Z,4.70
2022-11-23T16:18:50.459Z,4.70
2022-11-23T16:21:19.802Z,4.70
2022-11-23T16:23:53.146Z,4.60
2022-11-23T16:26:21.243Z,4.60
2022-11-23T16:28:51.032Z,4.60
2022-11-23T16:31:30.557Z,4.60
2022-11-23T16:33:57.533Z,4.60
2022-11-23T16:36:27.489Z,4.60
2022-11-23T16:38:59.735Z,4.50
2022-11-23T16:41:30.724Z,4.50
2022-11-23T16:43:57.357Z,4.50
2022-11-23T16:46:24.113Z,4.40
2022-11-23T16:48:50.986Z,4.40
2022-11-23T16:51:17.676Z,4.30
2022-11-23T16:54:12.638Z,4.30
2022-11-23T16:56:33.592Z,4.20
2022-11-23T16:59:00.345Z,4.20
2022-11-23T17:01:28.958Z,4.10
2022-11-23T17:03:56.243Z,4.10
2022-11-23T17:06:23.271Z,4.10
2022-11-23T17:08:59.379Z,4.00
2022-11-23T17:11:30.109Z,4.00
2022-11-23T17:13:56.946Z,4.00
2022-11-23T17:16:25.593Z,3.90
2022-11-23T17:18:52.538Z,3.90
2022-11-23T17:21:19.427Z,3.90
2022-11-23T17:23:46.200Z,3.80
2022-11-23T17:26:30.830Z,3.80
2022-11-23T17:29:00.679Z,3.80
2022-11-23T17:31:27.615Z,3.70
2022-11-23T17:33:54.518Z,3.70
2022-11-23T17:36:21.316Z,3.70
2022-11-23T17:38:48.370Z,3.70
2022-11-23T17:41:15.985Z,3.60
2022-11-23T17:43:43.032Z,3.60
2022-11-23T17:46:21.640Z,3.60
2022-11-23T17:48:57.256Z,3.60
2022-11-23T17:51:25.096Z,3.60
2022-11-23T17:53:52.126Z,3.60
2022-11-23T17:56:22.149Z,3.60
2022-11-23T17:58:49.641Z,3.50
2022-11-23T18:01:18.741Z,3.50
2022-11-23T18:03:45.974Z,3.50
2022-11-23T18:06:22.293Z,3.50
2022-11-23T18:08:50.558Z,3.50
2022-11-23T18:11:17.562Z,3.40
2022-11-23T18:13:44.894Z,3.40
2022-11-23T18:16:11.732Z,3.40
2022-11-23T18:18:38.814Z,3.30
2022-11-23T18:21:06.743Z,3.30
2022-11-23T18:23:33.959Z,3.30
2022-11-23T18:26:15.277Z,3.20
2022-11-23T18:28:42.042Z,3.20
2022-11-23T18:31:08.971Z,3.20
2022-11-23T18:33:36.716Z,3.10
2022-11-23T18:36:05.626Z,3.20
2022-11-23T18:38:33.906Z,3.10
2022-11-23T18:41:00.933Z,3.10
2022-11-23T18:43:27.587Z,3.00
2022-11-23T18:45:54.368Z,3.00
2022-11-23T18:48:21.179Z,2.90
2022-11-23T18:50:47.826Z,2.90
2022-11-23T18:53:14.841Z,2.80
2022-11-23T18:55:41.633Z,2.80
2022-11-23T18:58:08.357Z,2.80
2022-11-23T19:00:35.136Z,2.80
2022-11-23T19:03:02.681Z,2.80
2022-11-23T19:05:32.786Z,2.80
2022-11-23T19:08:05.095Z,2.80
2022-11-23T19:10:33.098Z,2.80
2022-11-23T19:13:05.192Z,2.80
2022-11-23T19:15:32.851Z,2.80
2022-11-23T19:17:59.807Z,2.70
2022-11-23T19:20:26.490Z,2.70
2022-11-23T19:22:53.182Z,2.70
2022-11-23T19:25:19.871Z,2.70
2022-11-23T19:27:46.650Z,2.70
2022-11-23T19:30:14.236Z,2.70
2022-11-23T19:32:40.921Z,2.70
2022-11-23T19:35:08.292Z,2.70
2022-11-23T19:37:36.436Z,2.60
2022-11-23T19:40:03.492Z,2.60
2022-11-23T19:42:34.567Z,2.60
2022-11-23T19:45:01.478Z,2.60
2022-11-23T19:47:29.725Z,2.60
2022-11-23T19:49:56.423Z,2.60
2022-11-23T19:52:23.083Z,2.50
2022-11-23T19:54:49.720Z,2.40
2022-11-23T19:57:16.374Z,2.50
2022-11-23T19:59:43.023Z,2.40
2022-11-23T20:02:23.883Z,2.40
2022-11-23T20:04:51.134Z,2.40
2022-11-23T20:07:18.918Z,2.40
2022-11-23T20:09:45.739Z,2.40
2022-11-23T20:12:12.502Z,2.40
2022-11-23T20:14:39.206Z,2.40
2022-11-23T20:17:05.854Z,2.30
2022-11-23T20:19:32.840Z,2.40
2022-11-23T20:21:59.650Z,2.30
2022-11-23T20:24:26.685Z,2.30
2022-11-23T20:26:53.706Z,2.30
2022-11-23T20:29:20.420Z,2.30
2022-11-23T20:31:47.235Z,2.20
2022-11-23T20:34:19.867Z,2.20
2022-11-23T20:36:48.237Z,2.20
2022-11-23T20:39:14.954Z,2.30
2022-11-23T20:41:42.509Z,2.20
2022-11-23T20:44:14.078Z,2.20
2022-11-23T20:49:28.240Z,2.20
2022-11-23T20:51:54.982Z,2.20
2022-11-23T20:54:21.646Z,2.10
2022-11-23T20:56:48.339Z,2.10
2022-11-23T20:59:15.148Z,2.10
2022-11-23T21:01:41.940Z,2.10
2022-11-23T21:04:08.768Z,2.20
2022-11-23T21:06:38.960Z,2.10
2022-11-23T21:09:07.122Z,2.10
2022-11-23T21:11:33.857Z,2.10
2022-11-23T21:14:01.303Z,2.10
2022-11-23T21:16:28.007Z,2.10
2022-11-23T21:18:54.661Z,2.10
2022-11-23T21:21:21.306Z,2.10
2022-11-23T21:23:51.129Z,2.00
2022-11-23T21:26:19.106Z,2.00
2022-11-23T21:28:45.825Z,2.10
2022-11-23T21:31:12.566Z,2.00
2022-11-23T21:33:39.605Z,2.00
2022-11-23T21:36:07.851Z,2.00
2022-11-23T21:38:35.525Z,1.90
2022-11-23T21:41:03.345Z,1.90
2022-11-23T21:43:30.113Z,1.90
2022-11-23T21:46:05.551Z,1.90
2022-11-23T21:48:33.542Z,1.90
2022-11-23T21:51:00.959Z,1.90
2022-11-23T21:53:28.118Z,1.90
2022-11-23T21:55:54.859Z,1.90
2022-11-23T21:58:21.552Z,1.90
2022-11-23T22:00:48.353Z,1.90
2022-11-23T22:03:15.187Z,1.90
2022-11-23T22:05:43.344Z,1.90
2022-11-23T22:10:56.891Z,1.90
2022-11-23T22:13:23.677Z,2.00
2022-11-23T22:15:50.467Z,2.00
2022-11-23T22:18:17.270Z,2.00
2022-11-23T22:20:44.198Z,2.00
2022-11-23T22:23:12.680Z,2.00
2022-11-23T22:25:41.921Z,2.00
2022-11-23T22:28:12.234Z,2.00
2022-11-23T22:30:39.016Z,2.00
2022-11-23T22:33:05.746Z,2.10
2022-11-23T22:35:32.858Z,2.10
2022-11-23T22:37:59.608Z,2.10
2022-11-23T22:40:26.372Z,2.10
2022-11-23T22:42:53.200Z,2.10
2022-11-23T22:45:19.942Z,2.10
2022-11-23T22:47:46.699Z,2.20
2022-11-23T22:50:13.522Z,2.10
2022-11-23T22:52:40.275Z,2.20
2022-11-23T22:55:07.352Z,2.20
2022-11-23T22:57:34.249Z,2.20
2022-11-23T23:00:00.975Z,2.20
2022-11-23T23:02:28.637Z,2.20
2022-11-23T23:04:55.433Z,2.20
2022-11-23T23:07:22.241Z,2.20
2022-11-23T23:09:49.077Z,2.30
2022-11-23T23:12:15.784Z,2.30
2022-11-23T23:14:42.510Z,2.20
2022-11-23T23:17:09.291Z,2.30
2022-11-23T23:19:36.022Z,2.30
2022-11-23T23:22:02.771Z,2.30
2022-11-23T23:24:29.549Z,2.30
2022-11-23T23:26:56.301Z,2.30
2022-11-23T23:29:23.063Z,2.20
2022-11-23T23:31:49.878Z,2.20
2022-11-23T23:34:16.674Z,2.20
2022-11-23T23:36:43.611Z,2.20
2022-11-23T23:39:11.115Z,2.20
2022-11-23T23:41:38.402Z,2.20
2022-11-23T23:44:05.368Z,2.20
2022-11-23T23:46:32.161Z,2.30
2022-11-23T23:48:59.089Z,2.30
2022-11-23T23:51:25.825Z,2.30
2022-11-23T23:53:53.078Z,2.30
2022-11-23T23:56:25.008Z,2.30
2022-11-23T23:58:54.167Z,2.30
